Terminal Aerodrome Forecast
Issued by NWS

Home | Current Version | Previous Version | Text Only | Print | Product List | Glossary On
Versions: 1 2 3 4 5 6 7 8 9 10 11 12 13 14 15 16 17 18 19 20 21 22 23 24
000
FTUS42 KCAE 291133
TAFDNL
TAF
KDNL 291133Z 2912/3012 13005KT P6SM BKN120
     FM291400 12006KT P6SM SCT040 BKN150
     FM292000 12008KT P6SM BKN050 OVC250
     FM292300 15005KT P6SM VCTS SCT015 BKN035CB OVC100 PROB30
      3000/3004 4SM -TSRA BKN015CB
     FM300400 VRB03KT P6SM BKN015
     FM300800 VRB03KT 3SM BR BKN012=

USA.gov is the U.S. government's official web portal to all federal, state and local government web resources and services.